sensor_id;sensor_type;location;lat;lon;timestamp;P1;durP1;ratioP1;P2;durP2;ratioP2
75760;SDS011;64373;46.136;8.830;2022-10-15T12:32:49;4.53;;;3.50;;
75760;SDS011;64373;46.136;8.830;2022-10-15T12:35:31;5.95;;;4.00;;
75760;SDS011;64373;46.136;8.830;2022-10-15T12:38:11;4.07;;;3.40;;
75760;SDS011;64373;46.136;8.830;2022-10-15T12:40:43;6.47;;;3.85;;
75760;SDS011;64373;46.136;8.830;2022-10-15T12:43:12;4.90;;;3.65;;
75760;SDS011;64373;46.136;8.830;2022-10-15T12:45:55;5.20;;;3.67;;
75760;SDS011;64373;46.136;8.830;2022-10-15T12:53:49;7.88;;;4.30;;
75760;SDS011;64373;46.136;8.830;2022-10-15T12:58:42;6.05;;;4.43;;
75760;SDS011;64373;46.136;8.830;2022-10-15T13:11:27;8.70;;;5.88;;
75760;SDS011;64373;46.136;8.830;2022-10-15T13:16:35;5.45;;;4.32;;
75760;SDS011;64373;46.136;8.830;2022-10-15T13:19:01;6.47;;;4.88;;
75760;SDS011;64373;46.136;8.830;2022-10-15T13:21:50;7.95;;;4.88;;
75760;SDS011;64373;46.136;8.830;2022-10-15T13:24:19;7.45;;;5.05;;
75760;SDS011;64373;46.136;8.830;2022-10-15T13:26:48;7.28;;;4.72;;
75760;SDS011;64373;46.136;8.830;2022-10-15T13:29:33;8.57;;;5.10;;
75760;SDS011;64373;46.136;8.830;2022-10-15T13:31:58;6.75;;;5.60;;
75760;SDS011;64373;46.136;8.830;2022-10-15T13:34:31;5.63;;;4.85;;
75760;SDS011;64373;46.136;8.830;2022-10-15T13:37:00;7.43;;;5.05;;
75760;SDS011;64373;46.136;8.830;2022-10-15T13:39:30;6.50;;;4.78;;
75760;SDS011;64373;46.136;8.830;2022-10-15T13:44:40;8.68;;;4.82;;
75760;SDS011;64373;46.136;8.830;2022-10-15T13:47:23;7.80;;;5.95;;
75760;SDS011;64373;46.136;8.830;2022-10-15T13:53:01;5.95;;;4.55;;
75760;SDS011;64373;46.136;8.830;2022-10-15T13:55:49;5.57;;;4.82;;
75760;SDS011;64373;46.136;8.830;2022-10-15T14:03:35;12.52;;;8.23;;
75760;SDS011;64373;46.136;8.830;2022-10-15T14:08:42;14.23;;;8.88;;
75760;SDS011;64373;46.136;8.830;2022-10-15T14:11:11;12.40;;;8.27;;
75760;SDS011;64373;46.136;8.830;2022-10-15T14:13:44;11.63;;;8.40;;
75760;SDS011;64373;46.136;8.830;2022-10-15T14:18:54;7.95;;;5.95;;
75760;SDS011;64373;46.136;8.830;2022-10-15T14:21:23;5.97;;;4.80;;
75760;SDS011;64373;46.136;8.830;2022-10-15T14:24:01;5.72;;;4.18;;
75760;SDS011;64373;46.136;8.830;2022-10-15T14:26:29;4.13;;;3.17;;
75760;SDS011;64373;46.136;8.830;2022-10-15T14:28:55;6.68;;;5.15;;
75760;SDS011;64373;46.136;8.830;2022-10-15T14:31:28;8.88;;;6.05;;
75760;SDS011;64373;46.136;8.830;2022-10-15T14:33:56;8.93;;;6.28;;
75760;SDS011;64373;46.136;8.830;2022-10-15T14:36:23;8.52;;;6.63;;
75760;SDS011;64373;46.136;8.830;2022-10-15T14:38:50;12.65;;;7.07;;
75760;SDS011;64373;46.136;8.830;2022-10-15T14:41:22;9.30;;;6.55;;
75760;SDS011;64373;46.136;8.830;2022-10-15T14:44:03;8.90;;;6.22;;
75760;SDS011;64373;46.136;8.830;2022-10-15T14:46:35;9.65;;;6.90;;
75760;SDS011;64373;46.136;8.830;2022-10-15T14:49:39;9.23;;;6.18;;
75760;SDS011;64373;46.136;8.830;2022-10-15T14:52:10;9.73;;;6.53;;
75760;SDS011;64373;46.136;8.830;2022-10-15T14:54:41;10.07;;;6.93;;
75760;SDS011;64373;46.136;8.830;2022-10-15T14:59:51;6.80;;;5.35;;
75760;SDS011;64373;46.136;8.830;2022-10-15T15:02:18;3.92;;;3.22;;
75760;SDS011;64373;46.136;8.830;2022-10-15T15:04:45;3.67;;;2.60;;
75760;SDS011;64373;46.136;8.830;2022-10-15T15:07:18;4.10;;;3.13;;
75760;SDS011;64373;46.136;8.830;2022-10-15T15:09:47;8.65;;;5.93;;
75760;SDS011;64373;46.136;8.830;2022-10-15T15:12:16;5.15;;;3.30;;
75760;SDS011;64373;46.136;8.830;2022-10-15T15:14:43;2.75;;;2.03;;
75760;SDS011;64373;46.136;8.830;2022-10-15T15:17:12;2.45;;;1.83;;
75760;SDS011;64373;46.136;8.830;2022-10-15T15:19:39;1.88;;;1.58;;
75760;SDS011;64373;46.136;8.830;2022-10-15T15:22:07;7.45;;;5.80;;
75760;SDS011;64373;46.136;8.830;2022-10-15T15:24:37;9.70;;;6.68;;
75760;SDS011;64373;46.136;8.830;2022-10-15T15:27:03;8.93;;;6.50;;
75760;SDS011;64373;46.136;8.830;2022-10-15T15:29:28;8.00;;;5.32;;
75760;SDS011;64373;46.136;8.830;2022-10-15T15:31:56;6.95;;;5.43;;
75760;SDS011;64373;46.136;8.830;2022-10-15T15:34:22;11.32;;;5.88;;
75760;SDS011;64373;46.136;8.830;2022-10-15T15:36:48;10.07;;;6.07;;
75760;SDS011;64373;46.136;8.830;2022-10-15T15:39:13;10.77;;;6.72;;
75760;SDS011;64373;46.136;8.830;2022-10-15T15:41:39;10.02;;;6.55;;
75760;SDS011;64373;46.136;8.830;2022-10-15T15:44:05;11.13;;;6.20;;
75760;SDS011;64373;46.136;8.830;2022-10-15T15:46:31;14.45;;;6.72;;
75760;SDS011;64373;46.136;8.830;2022-10-15T15:48:57;10.18;;;6.32;;
75760;SDS011;64373;46.136;8.830;2022-10-15T15:51:26;7.78;;;5.65;;
75760;SDS011;64373;46.136;8.830;2022-10-15T15:53:54;7.57;;;5.75;;
75760;SDS011;64373;46.136;8.830;2022-10-15T15:56:20;7.28;;;5.53;;
75760;SDS011;64373;46.136;8.830;2022-10-15T15:58:46;9.15;;;5.63;;
75760;SDS011;64373;46.136;8.830;2022-10-15T16:01:14;9.15;;;6.05;;
75760;SDS011;64373;46.136;8.830;2022-10-15T16:03:42;10.82;;;6.13;;
75760;SDS011;64373;46.136;8.830;2022-10-15T16:06:08;9.38;;;6.10;;
75760;SDS011;64373;46.136;8.830;2022-10-15T16:08:34;8.82;;;5.55;;
75760;SDS011;64373;46.136;8.830;2022-10-15T16:11:01;8.57;;;5.97;;
75760;SDS011;64373;46.136;8.830;2022-10-15T16:13:27;12.27;;;7.28;;
75760;SDS011;64373;46.136;8.830;2022-10-15T16:15:53;12.30;;;8.00;;
75760;SDS011;64373;46.136;8.830;2022-10-15T16:18:18;10.50;;;7.35;;
75760;SDS011;64373;46.136;8.830;2022-10-15T16:20:44;9.23;;;5.80;;
75760;SDS011;64373;46.136;8.830;2022-10-15T16:23:10;9.32;;;6.10;;
75760;SDS011;64373;46.136;8.830;2022-10-15T16:25:35;9.55;;;5.75;;
75760;SDS011;64373;46.136;8.830;2022-10-15T16:28:00;10.48;;;6.55;;
75760;SDS011;64373;46.136;8.830;2022-10-15T16:30:26;11.52;;;6.50;;
75760;SDS011;64373;46.136;8.830;2022-10-15T16:32:52;10.85;;;6.35;;
75760;SDS011;64373;46.136;8.830;2022-10-15T16:35:17;7.80;;;5.78;;
75760;SDS011;64373;46.136;8.830;2022-10-15T16:37:42;7.88;;;5.55;;
75760;SDS011;64373;46.136;8.830;2022-10-15T16:40:09;7.88;;;5.43;;
75760;SDS011;64373;46.136;8.830;2022-10-15T16:42:35;10.63;;;6.15;;
75760;SDS011;64373;46.136;8.830;2022-10-15T16:45:01;10.52;;;5.72;;
75760;SDS011;64373;46.136;8.830;2022-10-15T16:47:26;9.82;;;5.85;;
75760;SDS011;64373;46.136;8.830;2022-10-15T16:49:55;9.10;;;5.80;;
75760;SDS011;64373;46.136;8.830;2022-10-15T16:52:21;9.65;;;5.80;;
75760;SDS011;64373;46.136;8.830;2022-10-15T16:54:46;7.70;;;5.70;;
75760;SDS011;64373;46.136;8.830;2022-10-15T16:57:12;8.27;;;5.70;;
75760;SDS011;64373;46.136;8.830;2022-10-15T16:59:37;9.88;;;7.10;;
75760;SDS011;64373;46.136;8.830;2022-10-15T17:02:03;8.55;;;5.43;;
75760;SDS011;64373;46.136;8.830;2022-10-15T17:04:29;12.00;;;5.97;;
75760;SDS011;64373;46.136;8.830;2022-10-15T17:06:56;8.20;;;5.70;;
75760;SDS011;64373;46.136;8.830;2022-10-15T17:09:24;8.98;;;6.28;;
75760;SDS011;64373;46.136;8.830;2022-10-15T17:11:51;10.98;;;5.95;;
75760;SDS011;64373;46.136;8.830;2022-10-15T17:14:17;8.05;;;5.88;;
75760;SDS011;64373;46.136;8.830;2022-10-15T17:19:11;11.55;;;6.35;;
75760;SDS011;64373;46.136;8.830;2022-10-15T17:21:39;10.77;;;6.57;;
75760;SDS011;64373;46.136;8.830;2022-10-15T17:24:05;8.55;;;6.13;;
75760;SDS011;64373;46.136;8.830;2022-10-15T17:26:33;10.32;;;6.07;;
75760;SDS011;64373;46.136;8.830;2022-10-15T17:29:00;7.50;;;5.38;;
75760;SDS011;64373;46.136;8.830;2022-10-15T17:34:45;9.20;;;5.72;;
75760;SDS011;64373;46.136;8.830;2022-10-15T17:37:13;6.15;;;3.75;;
75760;SDS011;64373;46.136;8.830;2022-10-15T17:39:38;4.65;;;3.10;;
75760;SDS011;64373;46.136;8.830;2022-10-15T17:42:04;7.00;;;4.68;;
75760;SDS011;64373;46.136;8.830;2022-10-15T17:44:29;3.72;;;2.97;;
75760;SDS011;64373;46.136;8.830;2022-10-15T17:46:55;13.25;;;6.07;;
75760;SDS011;64373;46.136;8.830;2022-10-15T17:49:20;8.05;;;5.43;;
75760;SDS011;64373;46.136;8.830;2022-10-15T17:51:46;8.82;;;6.25;;
75760;SDS011;64373;46.136;8.830;2022-10-15T17:54:11;12.73;;;6.07;;
75760;SDS011;64373;46.136;8.830;2022-10-15T17:56:37;12.65;;;6.68;;
75760;SDS011;64373;46.136;8.830;2022-10-15T17:59:03;8.50;;;6.10;;
75760;SDS011;64373;46.136;8.830;2022-10-15T18:01:31;8.43;;;5.53;;
75760;SDS011;64373;46.136;8.830;2022-10-15T18:04:00;9.65;;;6.25;;
75760;SDS011;64373;46.136;8.830;2022-10-15T18:06:26;13.38;;;6.88;;
75760;SDS011;64373;46.136;8.830;2022-10-15T18:08:52;7.80;;;6.32;;
75760;SDS011;64373;46.136;8.830;2022-10-15T18:11:19;8.60;;;6.72;;
75760;SDS011;64373;46.136;8.830;2022-10-15T18:13:48;8.45;;;6.18;;
75760;SDS011;64373;46.136;8.830;2022-10-15T18:16:14;10.40;;;5.97;;
75760;SDS011;64373;46.136;8.830;2022-10-15T18:18:39;8.27;;;6.30;;
75760;SDS011;64373;46.136;8.830;2022-10-15T18:21:08;11.50;;;6.10;;
75760;SDS011;64373;46.136;8.830;2022-10-15T18:23:36;8.95;;;6.50;;
75760;SDS011;64373;46.136;8.830;2022-10-15T18:26:02;10.05;;;6.32;;
75760;SDS011;64373;46.136;8.830;2022-10-15T18:28:32;10.40;;;5.85;;
75760;SDS011;64373;46.136;8.830;2022-10-15T18:31:00;8.82;;;6.38;;
75760;SDS011;64373;46.136;8.830;2022-10-15T18:33:31;10.02;;;6.93;;
75760;SDS011;64373;46.136;8.830;2022-10-15T18:36:12;11.05;;;6.25;;
75760;SDS011;64373;46.136;8.830;2022-10-15T18:38:42;11.93;;;6.57;;
75760;SDS011;64373;46.136;8.830;2022-10-15T18:41:11;11.48;;;6.70;;
75760;SDS011;64373;46.136;8.830;2022-10-15T18:43:40;8.32;;;6.18;;
75760;SDS011;64373;46.136;8.830;2022-10-15T18:46:06;13.27;;;6.40;;
75760;SDS011;64373;46.136;8.830;2022-10-15T18:48:31;10.43;;;6.50;;
75760;SDS011;64373;46.136;8.830;2022-10-15T18:50:57;8.55;;;6.40;;
75760;SDS011;64373;46.136;8.830;2022-10-15T18:53:22;8.40;;;6.03;;
75760;SDS011;64373;46.136;8.830;2022-10-15T18:55:49;10.57;;;6.90;;
75760;SDS011;64373;46.136;8.830;2022-10-15T18:58:15;13.40;;;6.95;;
75760;SDS011;64373;46.136;8.830;2022-10-15T19:00:40;10.10;;;6.82;;
75760;SDS011;64373;46.136;8.830;2022-10-15T19:03:07;12.13;;;6.57;;
75760;SDS011;64373;46.136;8.830;2022-10-15T19:05:32;10.90;;;6.75;;
75760;SDS011;64373;46.136;8.830;2022-10-15T19:07:59;9.10;;;6.90;;
75760;SDS011;64373;46.136;8.830;2022-10-15T19:10:28;11.07;;;7.03;;
75760;SDS011;64373;46.136;8.830;2022-10-15T19:12:54;12.45;;;7.55;;
75760;SDS011;64373;46.136;8.830;2022-10-15T19:15:19;10.75;;;7.47;;
75760;SDS011;64373;46.136;8.830;2022-10-15T19:17:44;11.50;;;6.47;;
75760;SDS011;64373;46.136;8.830;2022-10-15T19:20:10;12.93;;;7.38;;
75760;SDS011;64373;46.136;8.830;2022-10-15T19:22:36;11.32;;;7.25;;
75760;SDS011;64373;46.136;8.830;2022-10-15T19:25:02;14.40;;;7.32;;
75760;SDS011;64373;46.136;8.830;2022-10-15T19:27:28;11.15;;;6.40;;
75760;SDS011;64373;46.136;8.830;2022-10-15T19:29:54;14.45;;;7.10;;
75760;SDS011;64373;46.136;8.830;2022-10-15T19:32:19;10.60;;;6.95;;
75760;SDS011;64373;46.136;8.830;2022-10-15T19:34:45;12.80;;;6.53;;
75760;SDS011;64373;46.136;8.830;2022-10-15T19:37:10;10.48;;;7.05;;
75760;SDS011;64373;46.136;8.830;2022-10-15T19:39:36;10.98;;;6.78;;
75760;SDS011;64373;46.136;8.830;2022-10-15T19:42:01;11.20;;;6.80;;
75760;SDS011;64373;46.136;8.830;2022-10-15T19:44:27;11.30;;;7.25;;
75760;SDS011;64373;46.136;8.830;2022-10-15T19:46:55;9.50;;;7.03;;
75760;SDS011;64373;46.136;8.830;2022-10-15T19:49:21;10.45;;;7.15;;
75760;SDS011;64373;46.136;8.830;2022-10-15T19:51:47;10.13;;;7.35;;
75760;SDS011;64373;46.136;8.830;2022-10-15T19:54:13;11.02;;;7.03;;
75760;SDS011;64373;46.136;8.830;2022-10-15T19:56:39;12.02;;;6.95;;
75760;SDS011;64373;46.136;8.830;2022-10-15T19:59:05;11.20;;;7.15;;
75760;SDS011;64373;46.136;8.830;2022-10-15T20:01:31;11.93;;;6.85;;
75760;SDS011;64373;46.136;8.830;2022-10-15T20:04:00;9.27;;;6.50;;
75760;SDS011;64373;46.136;8.830;2022-10-15T20:06:27;5.72;;;3.67;;
75760;SDS011;64373;46.136;8.830;2022-10-15T20:08:53;4.28;;;3.20;;
75760;SDS011;64373;46.136;8.830;2022-10-15T20:11:19;5.30;;;3.10;;
75760;SDS011;64373;46.136;8.830;2022-10-15T20:13:45;4.43;;;2.42;;
75760;SDS011;64373;46.136;8.830;2022-10-15T20:16:10;5.80;;;4.07;;
75760;SDS011;64373;46.136;8.830;2022-10-15T20:18:39;5.47;;;3.50;;
75760;SDS011;64373;46.136;8.830;2022-10-15T20:21:05;4.07;;;3.17;;
75760;SDS011;64373;46.136;8.830;2022-10-15T20:23:32;3.65;;;2.10;;
75760;SDS011;64373;46.136;8.830;2022-10-15T20:25:57;4.38;;;2.75;;
75760;SDS011;64373;46.136;8.830;2022-10-15T20:28:28;4.63;;;3.30;;
75760;SDS011;64373;46.136;8.830;2022-10-15T20:30:53;2.80;;;2.53;;
75760;SDS011;64373;46.136;8.830;2022-10-15T20:33:20;5.95;;;4.57;;
75760;SDS011;64373;46.136;8.830;2022-10-15T20:35:45;4.68;;;3.80;;
75760;SDS011;64373;46.136;8.830;2022-10-15T20:38:14;4.97;;;3.67;;
75760;SDS011;64373;46.136;8.830;2022-10-15T20:40:40;4.40;;;3.65;;
75760;SDS011;64373;46.136;8.830;2022-10-15T20:43:05;4.38;;;3.42;;
75760;SDS011;64373;46.136;8.830;2022-10-15T20:45:32;8.68;;;5.15;;
75760;SDS011;64373;46.136;8.830;2022-10-15T20:48:02;6.18;;;4.40;;
75760;SDS011;64373;46.136;8.830;2022-10-15T20:50:32;8.45;;;6.07;;
75760;SDS011;64373;46.136;8.830;2022-10-15T20:52:58;10.65;;;7.03;;
75760;SDS011;64373;46.136;8.830;2022-10-15T20:55:25;11.05;;;7.30;;
75760;SDS011;64373;46.136;8.830;2022-10-15T20:57:50;12.02;;;7.13;;
75760;SDS011;64373;46.136;8.830;2022-10-15T21:00:16;10.70;;;7.00;;
75760;SDS011;64373;46.136;8.830;2022-10-15T21:02:41;11.80;;;6.95;;
75760;SDS011;64373;46.136;8.830;2022-10-15T21:05:07;11.68;;;7.25;;
75760;SDS011;64373;46.136;8.830;2022-10-15T21:07:33;7.93;;;5.60;;
75760;SDS011;64373;46.136;8.830;2022-10-15T21:09:59;6.40;;;4.20;;
75760;SDS011;64373;46.136;8.830;2022-10-15T21:12:25;4.88;;;3.10;;
75760;SDS011;64373;46.136;8.830;2022-10-15T21:14:50;6.25;;;4.53;;
75760;SDS011;64373;46.136;8.830;2022-10-15T21:17:16;3.53;;;2.83;;
75760;SDS011;64373;46.136;8.830;2022-10-15T21:19:41;3.63;;;2.10;;
75760;SDS011;64373;46.136;8.830;2022-10-15T21:22:07;2.83;;;2.10;;
75760;SDS011;64373;46.136;8.830;2022-10-15T21:24:33;2.03;;;1.83;;
75760;SDS011;64373;46.136;8.830;2022-10-15T21:26:58;1.95;;;1.65;;
75760;SDS011;64373;46.136;8.830;2022-10-15T21:29:24;4.95;;;3.25;;
75760;SDS011;64373;46.136;8.830;2022-10-15T21:31:51;8.73;;;6.40;;
75760;SDS011;64373;46.136;8.830;2022-10-15T21:34:16;9.25;;;6.32;;
75760;SDS011;64373;46.136;8.830;2022-10-15T21:36:44;10.70;;;6.65;;
75760;SDS011;64373;46.136;8.830;2022-10-15T21:39:09;13.57;;;7.50;;
75760;SDS011;64373;46.136;8.830;2022-10-15T21:41:36;10.45;;;6.95;;
75760;SDS011;64373;46.136;8.830;2022-10-15T21:44:02;11.05;;;8.00;;
75760;SDS011;64373;46.136;8.830;2022-10-15T21:46:29;11.43;;;7.07;;
75760;SDS011;64373;46.136;8.830;2022-10-15T21:48:55;7.07;;;5.50;;
75760;SDS011;64373;46.136;8.830;2022-10-15T21:51:21;6.10;;;3.92;;
75760;SDS011;64373;46.136;8.830;2022-10-15T21:53:48;4.53;;;3.67;;
75760;SDS011;64373;46.136;8.830;2022-10-15T21:56:14;6.70;;;3.78;;
75760;SDS011;64373;46.136;8.830;2022-10-15T21:58:40;4.07;;;3.33;;
75760;SDS011;64373;46.136;8.830;2022-10-15T22:03:36;3.50;;;2.72;;
75760;SDS011;64373;46.136;8.830;2022-10-15T22:06:02;3.72;;;2.40;;
75760;SDS011;64373;46.136;8.830;2022-10-15T22:08:28;12.27;;;7.18;;
75760;SDS011;64373;46.136;8.830;2022-10-15T22:10:54;9.40;;;6.35;;
75760;SDS011;64373;46.136;8.830;2022-10-15T22:13:20;11.40;;;7.10;;
75760;SDS011;64373;46.136;8.830;2022-10-15T22:15:45;10.63;;;7.40;;
75760;SDS011;64373;46.136;8.830;2022-10-15T22:18:11;11.40;;;6.95;;
75760;SDS011;64373;46.136;8.830;2022-10-15T22:20:36;14.93;;;8.43;;
75760;SDS011;64373;46.136;8.830;2022-10-15T22:23:01;13.23;;;7.20;;
75760;SDS011;64373;46.136;8.830;2022-10-15T22:25:27;10.13;;;5.95;;
75760;SDS011;64373;46.136;8.830;2022-10-15T22:27:52;6.95;;;5.00;;
75760;SDS011;64373;46.136;8.830;2022-10-15T22:30:18;7.38;;;5.88;;
75760;SDS011;64373;46.136;8.830;2022-10-15T22:32:43;10.20;;;6.47;;
75760;SDS011;64373;46.136;8.830;2022-10-15T22:35:08;6.88;;;5.13;;
75760;SDS011;64373;46.136;8.830;2022-10-15T22:37:34;5.88;;;4.38;;
75760;SDS011;64373;46.136;8.830;2022-10-15T22:39:59;4.80;;;3.80;;
75760;SDS011;64373;46.136;8.830;2022-10-15T22:42:25;10.10;;;6.75;;
75760;SDS011;64373;46.136;8.830;2022-10-15T22:44:50;11.52;;;7.47;;
75760;SDS011;64373;46.136;8.830;2022-10-15T22:47:16;13.95;;;9.07;;
75760;SDS011;64373;46.136;8.830;2022-10-15T22:49:41;11.77;;;8.70;;
75760;SDS011;64373;46.136;8.830;2022-10-15T22:52:07;11.82;;;8.48;;
75760;SDS011;64373;46.136;8.830;2022-10-15T22:54:32;15.90;;;8.50;;
75760;SDS011;64373;46.136;8.830;2022-10-15T22:56:57;14.13;;;8.27;;
75760;SDS011;64373;46.136;8.830;2022-10-15T22:59:23;11.15;;;7.90;;
75760;SDS011;64373;46.136;8.830;2022-10-15T23:01:48;6.78;;;5.00;;
75760;SDS011;64373;46.136;8.830;2022-10-15T23:04:14;4.20;;;3.40;;
75760;SDS011;64373;46.136;8.830;2022-10-15T23:06:40;3.83;;;2.90;;
75760;SDS011;64373;46.136;8.830;2022-10-15T23:09:06;3.50;;;2.13;;
75760;SDS011;64373;46.136;8.830;2022-10-15T23:11:33;2.75;;;2.25;;
75760;SDS011;64373;46.136;8.830;2022-10-15T23:14:04;4.65;;;3.55;;
75760;SDS011;64373;46.136;8.830;2022-10-15T23:16:38;10.00;;;7.35;;
75760;SDS011;64373;46.136;8.830;2022-10-15T23:19:06;12.68;;;7.57;;
75760;SDS011;64373;46.136;8.830;2022-10-15T23:21:37;11.77;;;7.47;;
75760;SDS011;64373;46.136;8.830;2022-10-15T23:24:05;14.20;;;10.55;;
75760;SDS011;64373;46.136;8.830;2022-10-15T23:26:31;14.35;;;8.57;;
75760;SDS011;64373;46.136;8.830;2022-10-15T23:28:57;10.15;;;6.75;;
75760;SDS011;64373;46.136;8.830;2022-10-15T23:31:25;12.00;;;7.07;;
75760;SDS011;64373;46.136;8.830;2022-10-15T23:33:52;10.57;;;7.20;;
75760;SDS011;64373;46.136;8.830;2022-10-15T23:36:19;6.80;;;4.20;;
75760;SDS011;64373;46.136;8.830;2022-10-15T23:38:50;4.40;;;3.30;;
75760;SDS011;64373;46.136;8.830;2022-10-15T23:41:16;3.05;;;2.25;;
75760;SDS011;64373;46.136;8.830;2022-10-15T23:43:42;2.42;;;1.98;;
75760;SDS011;64373;46.136;8.830;2022-10-15T23:46:08;2.85;;;1.95;;
75760;SDS011;64373;46.136;8.830;2022-10-15T23:48:34;2.70;;;2.08;;
75760;SDS011;64373;46.136;8.830;2022-10-15T23:50:59;10.93;;;7.05;;
75760;SDS011;64373;46.136;8.830;2022-10-15T23:53:25;12.15;;;7.47;;
75760;SDS011;64373;46.136;8.830;2022-10-15T23:55:51;10.00;;;7.60;;
75760;SDS011;64373;46.136;8.830;2022-10-15T23:58:16;10.57;;;7.05;;
